createdAt,value
2018-12-18T00:00:43.287Z,100424.16
2018-12-18T00:03:12.834Z,100417.04
2018-12-18T00:05:42.445Z,100418.86
2018-12-18T00:08:12.108Z,100418.92
2018-12-18T00:10:45.820Z,100423.73
2018-12-18T00:13:15.423Z,100424.03
2018-12-18T00:15:47.994Z,100426.82
2018-12-18T00:18:17.558Z,100432.97
2018-12-18T00:20:47.153Z,100433.35
2018-12-18T00:23:16.814Z,100433.03
2018-12-18T00:25:46.534Z,100435.88
2018-12-18T00:28:16.118Z,100434.80
2018-12-18T00:30:45.723Z,100434.84
2018-12-18T00:33:15.433Z,100442.05
2018-12-18T00:35:45.037Z,100438.23
2018-12-18T00:38:14.643Z,100433.34
2018-12-18T00:40:44.629Z,100444.73
2018-12-18T00:43:14.274Z,100445.68
2018-12-18T00:45:44.108Z,100445.14
2018-12-18T00:48:13.705Z,100443.87
2018-12-18T00:50:43.347Z,100447.55
2018-12-18T00:53:13.108Z,100440.11
2018-12-18T00:55:42.728Z,100437.75
2018-12-18T00:58:12.346Z,100446.46
2018-12-18T01:00:41.943Z,100446.15
2018-12-18T01:03:11.588Z,100448.69
2018-12-18T01:05:41.257Z,100454.97
2018-12-18T01:08:10.934Z,100455.73
2018-12-18T01:10:40.655Z,100461.14
2018-12-18T01:13:10.365Z,100456.73
2018-12-18T01:15:40.058Z,100462.90
2018-12-18T01:18:09.637Z,100470.66
2018-12-18T01:20:39.250Z,100465.55
2018-12-18T01:23:08.924Z,100469.27
2018-12-18T01:25:38.529Z,100467.63
2018-12-18T01:28:08.128Z,100471.53
2018-12-18T01:30:37.900Z,100463.19
2018-12-18T01:33:07.497Z,100465.14
2018-12-18T01:35:37.138Z,100472.94
2018-12-18T01:38:06.867Z,100471.39
2018-12-18T01:40:36.424Z,100469.22
2018-12-18T01:43:06.089Z,100470.98
2018-12-18T01:45:36.079Z,100469.20
2018-12-18T01:48:05.725Z,100461.27
2018-12-18T01:50:35.359Z,100465.89
2018-12-18T01:53:04.984Z,100465.58
2018-12-18T01:55:34.694Z,100461.17
2018-12-18T01:58:04.289Z,100461.89
2018-12-18T02:00:33.909Z,100459.68
2018-12-18T02:03:03.529Z,100457.41
2018-12-18T02:05:33.304Z,100460.85
2018-12-18T02:08:02.871Z,100459.27
2018-12-18T02:10:32.526Z,100457.22
2018-12-18T02:13:02.159Z,100457.05
2018-12-18T02:15:31.665Z,100465.08
2018-12-18T02:18:01.329Z,100466.12
2018-12-18T02:20:31.011Z,100467.53
2018-12-18T02:23:00.600Z,100466.31
2018-12-18T02:25:30.255Z,100471.48
2018-12-18T02:27:59.954Z,100473.66
2018-12-18T02:30:29.600Z,100464.58
2018-12-18T02:32:59.606Z,100479.42
2018-12-18T02:35:29.296Z,100480.28
2018-12-18T02:38:00.507Z,100475.02
2018-12-18T02:40:30.247Z,100471.39
2018-12-18T02:42:59.845Z,100471.21
2018-12-18T02:45:29.565Z,100473.03
2018-12-18T02:48:00.139Z,100473.97
2018-12-18T02:50:29.765Z,100470.12
2018-12-18T02:52:59.407Z,100470.12
2018-12-18T02:55:29.000Z,100470.93
2018-12-18T02:57:58.704Z,100470.12
2018-12-18T03:00:28.248Z,100473.66
2018-12-18T03:03:04.535Z,100477.66
2018-12-18T03:05:34.629Z,100483.92
2018-12-18T03:08:04.307Z,100484.55
2018-12-18T03:10:34.071Z,100484.78
2018-12-18T03:13:03.770Z,100485.69
2018-12-18T03:15:33.305Z,100482.38
2018-12-18T03:18:03.037Z,100484.01
2018-12-18T03:20:32.660Z,100485.42
2018-12-18T03:23:02.265Z,100483.83
2018-12-18T03:25:31.990Z,100475.67
2018-12-18T03:28:01.576Z,100477.60
2018-12-18T03:30:31.365Z,100477.39
2018-12-18T03:33:01.087Z,100480.14
2018-12-18T03:35:30.677Z,100475.75
2018-12-18T03:38:00.595Z,100478.83
2018-12-18T03:40:30.209Z,100478.97
2018-12-18T03:43:00.066Z,100478.79
2018-12-18T03:45:29.826Z,100475.75
2018-12-18T03:47:59.535Z,100468.75
2018-12-18T03:50:29.441Z,100476.02
2018-12-18T03:52:59.067Z,100475.74
2018-12-18T03:55:28.645Z,100481.64
2018-12-18T03:57:58.265Z,100475.43
2018-12-18T04:00:27.928Z,100476.84
2018-12-18T04:02:57.618Z,100474.97
2018-12-18T04:05:27.221Z,100476.84
2018-12-18T04:07:56.983Z,100475.16
2018-12-18T04:10:26.596Z,100470.66
2018-12-18T04:12:56.214Z,100473.34
2018-12-18T04:15:26.095Z,100477.74
2018-12-18T04:17:55.717Z,100479.32
2018-12-18T04:20:25.328Z,100472.93
2018-12-18T04:22:55.020Z,100478.59
2018-12-18T04:25:24.617Z,100482.73
2018-12-18T04:27:54.220Z,100482.11
2018-12-18T04:30:23.829Z,100478.74
2018-12-18T04:32:53.566Z,100469.06
2018-12-18T04:35:23.369Z,100475.92
2018-12-18T04:37:52.975Z,100481.23
2018-12-18T04:40:22.586Z,100477.70
2018-12-18T04:42:52.330Z,100479.97
2018-12-18T04:45:22.106Z,100480.38
2018-12-18T04:47:51.700Z,100475.02
2018-12-18T04:50:21.304Z,100476.20
2018-12-18T04:52:50.991Z,100472.02
2018-12-18T04:55:20.566Z,100479.60
2018-12-18T04:57:50.230Z,100473.39
2018-12-18T05:00:19.910Z,100476.52
2018-12-18T05:02:49.785Z,100484.96
2018-12-18T05:05:19.494Z,100483.73
2018-12-18T05:07:49.075Z,100477.16
2018-12-18T05:10:18.660Z,100485.18
2018-12-18T05:12:48.342Z,100481.74
2018-12-18T05:15:17.937Z,100475.34
2018-12-18T05:17:47.606Z,100485.33
2018-12-18T05:20:17.296Z,100480.65
2018-12-18T05:22:46.810Z,100483.87
2018-12-18T05:25:16.520Z,100485.69
2018-12-18T05:27:46.190Z,100495.59
2018-12-18T05:30:15.812Z,100488.23
2018-12-18T05:32:45.411Z,100496.49
2018-12-18T05:35:15.038Z,100495.67
2018-12-18T05:37:44.848Z,100497.41
2018-12-18T05:40:14.511Z,100501.20
2018-12-18T05:42:44.316Z,100506.35
2018-12-18T05:45:13.906Z,100500.54
2018-12-18T05:47:43.651Z,100504.02
2018-12-18T05:50:13.261Z,100509.56
2018-12-18T05:52:42.987Z,100514.46
2018-12-18T05:55:12.596Z,100516.14
2018-12-18T05:57:42.308Z,100522.63
2018-12-18T06:00:12.351Z,100527.31
2018-12-18T06:02:42.052Z,100522.27
2018-12-18T06:05:11.760Z,100520.42
2018-12-18T06:07:41.356Z,100523.36
2018-12-18T06:10:11.093Z,100524.19
2018-12-18T06:12:40.760Z,100523.50
2018-12-18T06:15:10.420Z,100526.50
2018-12-18T06:17:40.278Z,100523.36
2018-12-18T06:20:09.976Z,100525.95
2018-12-18T06:22:39.456Z,100530.62
2018-12-18T06:25:09.035Z,100534.31
2018-12-18T06:27:38.892Z,100537.98
2018-12-18T06:30:08.660Z,100537.31
2018-12-18T06:32:38.315Z,100535.45
2018-12-18T06:35:10.483Z,100530.26
2018-12-18T06:37:39.796Z,100528.50
2018-12-18T06:40:09.588Z,100535.63
2018-12-18T06:42:39.307Z,100537.30
2018-12-18T06:45:08.971Z,100537.16
2018-12-18T06:47:38.627Z,100547.94
2018-12-18T06:50:08.428Z,100537.53
2018-12-18T06:52:38.026Z,100544.11
2018-12-18T06:55:07.686Z,100546.39
2018-12-18T06:57:37.341Z,100548.11
2018-12-18T07:00:10.281Z,100552.57
2018-12-18T07:02:40.447Z,100552.80
2018-12-18T07:05:16.517Z,100549.30
2018-12-18T07:07:41.700Z,100546.94
2018-12-18T07:10:11.356Z,100548.62
2018-12-18T07:12:41.116Z,100553.11
2018-12-18T07:15:10.754Z,100556.52
2018-12-18T07:17:40.356Z,100555.37
2018-12-18T07:20:10.037Z,100555.37
2018-12-18T07:22:39.848Z,100556.56
2018-12-18T07:25:09.462Z,100553.16
2018-12-18T07:27:39.091Z,100562.27
2018-12-18T07:30:08.843Z,100555.20
2018-12-18T07:32:38.416Z,100556.65
2018-12-18T07:35:07.978Z,100558.83
2018-12-18T07:37:37.591Z,100558.28
2018-12-18T07:40:07.252Z,100565.68
2018-12-18T07:42:36.841Z,100563.18
2018-12-18T07:45:06.405Z,100569.13
2018-12-18T07:47:36.035Z,100569.00
2018-12-18T07:50:06.035Z,100570.32
2018-12-18T07:52:35.521Z,100570.59
2018-12-18T07:55:05.231Z,100569.31
2018-12-18T07:57:34.862Z,100577.22
2018-12-18T08:00:04.566Z,100575.21
2018-12-18T08:02:34.376Z,100565.53
2018-12-18T08:05:04.270Z,100567.76
2018-12-18T08:07:33.875Z,100565.27
2018-12-18T08:10:03.962Z,100564.37
2018-12-18T08:12:33.495Z,100572.86
2018-12-18T08:15:03.207Z,100570.59
2018-12-18T08:17:32.740Z,100565.17
2018-12-18T08:20:02.324Z,100569.68
2018-12-18T08:22:31.962Z,100577.71
2018-12-18T08:25:01.539Z,100578.44
2018-12-18T08:27:31.151Z,100581.12
2018-12-18T08:30:00.743Z,100582.44
2018-12-18T08:32:30.352Z,100583.93
2018-12-18T08:34:59.963Z,100588.30
2018-12-18T08:37:29.497Z,100588.30
2018-12-18T08:39:58.987Z,100584.61
2018-12-18T08:42:28.532Z,100588.02
2018-12-18T08:44:58.068Z,100587.19
2018-12-18T08:47:27.621Z,100593.16
2018-12-18T08:49:57.182Z,100595.78
2018-12-18T08:52:26.737Z,100598.56
2018-12-18T08:54:56.282Z,100605.67
2018-12-18T08:57:25.822Z,100605.73
2018-12-18T08:59:55.451Z,100604.00
2018-12-18T09:02:25.013Z,100609.72
2018-12-18T09:04:54.625Z,100601.09
2018-12-18T09:07:24.196Z,100598.97
2018-12-18T09:09:53.819Z,100607.73
2018-12-18T09:12:23.481Z,100609.36
2018-12-18T09:14:57.122Z,100605.88
2018-12-18T09:17:31.027Z,100607.14
2018-12-18T09:20:00.529Z,100596.70
2018-12-18T09:22:30.147Z,100587.93
2018-12-18T09:24:59.747Z,100589.39
2018-12-18T09:27:29.290Z,100596.79
2018-12-18T09:29:58.841Z,100598.30
2018-12-18T09:32:28.367Z,100601.05
2018-12-18T09:34:58.084Z,100596.97
2018-12-18T09:37:27.664Z,100594.88
2018-12-18T09:39:57.199Z,100597.66
2018-12-18T09:42:30.743Z,100591.39
2018-12-18T09:45:00.351Z,100588.75
2018-12-18T09:47:29.878Z,100596.61
2018-12-18T09:49:59.432Z,100582.72
2018-12-18T09:52:28.983Z,100578.81
2018-12-18T09:54:58.594Z,100581.30
2018-12-18T09:57:32.190Z,100579.32
2018-12-18T10:00:01.711Z,100577.03
2018-12-18T10:02:31.211Z,100583.53
2018-12-18T10:05:00.839Z,100579.13
2018-12-18T10:07:30.381Z,100574.63
2018-12-18T10:09:59.918Z,100567.01
2018-12-18T10:12:33.509Z,100572.69
2018-12-18T10:15:03.285Z,100568.78
2018-12-18T10:17:32.945Z,100568.87
2018-12-18T10:20:02.539Z,100573.59
2018-12-18T10:22:32.056Z,100566.01
2018-12-18T10:25:01.614Z,100567.01
2018-12-18T10:27:31.185Z,100563.78
2018-12-18T10:30:00.862Z,100561.10
2018-12-18T10:32:30.461Z,100562.06
2018-12-18T10:35:00.051Z,100569.55
2018-12-18T10:37:29.671Z,100564.64
2018-12-18T10:39:59.251Z,100568.73
2018-12-18T10:42:28.808Z,100566.81
2018-12-18T10:44:58.358Z,100559.73
2018-12-18T10:47:27.901Z,100561.64
2018-12-18T10:49:57.520Z,100564.00
2018-12-18T10:52:27.127Z,100561.37
2018-12-18T10:54:56.762Z,100555.33
2018-12-18T10:57:26.311Z,100553.65
2018-12-18T10:59:56.127Z,100554.52
2018-12-18T11:02:25.685Z,100548.43
2018-12-18T11:04:55.237Z,100552.70
2018-12-18T11:07:24.814Z,100551.52
2018-12-18T11:09:54.443Z,100544.84
2018-12-18T11:12:28.244Z,100550.20
2018-12-18T11:14:57.951Z,100544.20
2018-12-18T11:17:27.540Z,100542.67
2018-12-18T11:19:57.166Z,100541.35
2018-12-18T11:22:26.770Z,100538.77
2018-12-18T11:24:56.987Z,100540.26
2018-12-18T11:27:26.549Z,100533.72
2018-12-18T11:29:56.113Z,100531.55
2018-12-18T11:32:25.812Z,100535.81
2018-12-18T11:34:55.378Z,100540.40
2018-12-18T11:37:25.038Z,100532.31
2018-12-18T11:39:54.575Z,100534.55
2018-12-18T11:42:24.181Z,100533.09
2018-12-18T11:44:53.739Z,100540.08
2018-12-18T11:47:23.257Z,100536.63
2018-12-18T11:49:52.842Z,100537.72
2018-12-18T11:52:22.397Z,100534.04
2018-12-18T11:54:51.979Z,100530.14
2018-12-18T11:57:21.491Z,100531.55
2018-12-18T11:59:50.989Z,100527.00
2018-12-18T12:02:20.561Z,100529.41
2018-12-18T12:04:50.171Z,100524.14
2018-12-18T12:07:19.921Z,100529.41
2018-12-18T12:09:49.484Z,100526.33
2018-12-18T12:12:19.044Z,100527.23
2018-12-18T12:14:48.703Z,100525.45
2018-12-18T12:17:18.389Z,100529.87
2018-12-18T12:19:47.917Z,100530.04
2018-12-18T12:22:17.492Z,100530.36
2018-12-18T12:24:47.121Z,100527.81
2018-12-18T12:27:20.740Z,100528.14
2018-12-18T12:29:50.436Z,100532.18
2018-12-18T12:32:19.923Z,100531.23
2018-12-18T12:34:49.531Z,100530.36
2018-12-18T12:37:19.174Z,100522.33
2018-12-18T12:39:48.709Z,100521.97
2018-12-18T12:42:18.348Z,100523.38
2018-12-18T12:44:47.884Z,100527.50
2018-12-18T12:47:17.410Z,100520.86
2018-12-18T12:49:47.273Z,100519.33
2018-12-18T12:52:16.860Z,100518.50
2018-12-18T12:54:46.387Z,100517.97
2018-12-18T12:57:16.110Z,100516.83
2018-12-18T12:59:45.664Z,100522.19
2018-12-18T13:02:15.356Z,100517.83
2018-12-18T13:04:44.900Z,100520.55
2018-12-18T13:07:14.516Z,100523.33
2018-12-18T13:09:44.663Z,100523.19
2018-12-18T13:12:14.226Z,100521.50
2018-12-18T13:14:43.939Z,100519.64
2018-12-18T13:17:14.752Z,100518.70
2018-12-18T13:19:44.396Z,100515.28
2018-12-18T13:22:13.981Z,100514.33
2018-12-18T13:24:43.593Z,100516.97
2018-12-18T13:27:13.198Z,100515.06
2018-12-18T13:29:43.287Z,100516.83
2018-12-18T13:32:13.036Z,100518.28
2018-12-18T13:34:42.736Z,100524.73
2018-12-18T13:37:12.614Z,100523.73
2018-12-18T13:39:42.295Z,100529.19
2018-12-18T13:42:12.063Z,100520.50
2018-12-18T13:44:41.972Z,100525.50
2018-12-18T13:47:11.531Z,100524.23
2018-12-18T13:49:41.272Z,100529.41
2018-12-18T13:52:10.994Z,100529.19
2018-12-18T13:54:40.803Z,100526.36
2018-12-18T13:57:10.514Z,100528.77
2018-12-18T13:59:40.195Z,100524.41
2018-12-18T14:02:09.713Z,100526.14
2018-12-18T14:04:39.233Z,100523.83
2018-12-18T14:07:08.845Z,100519.41
2018-12-18T14:09:38.873Z,100520.14
2018-12-18T14:12:08.384Z,100515.83
2018-12-18T14:14:38.022Z,100512.61
2018-12-18T14:17:07.569Z,100522.88
2018-12-18T14:19:37.175Z,100523.36
2018-12-18T14:22:06.753Z,100528.45
2018-12-18T14:24:36.263Z,100530.45
2018-12-18T14:27:05.782Z,100527.05
2018-12-18T14:29:35.326Z,100529.81
2018-12-18T14:32:04.992Z,100531.04
2018-12-18T14:34:34.538Z,100522.50
2018-12-18T14:37:04.119Z,100528.09
2018-12-18T14:39:33.809Z,100530.04
2018-12-18T14:42:03.443Z,100530.18
2018-12-18T14:44:33.127Z,100529.50
2018-12-18T14:47:02.836Z,100537.63
2018-12-18T14:49:32.442Z,100531.36
2018-12-18T14:52:02.120Z,100532.27
2018-12-18T14:54:31.859Z,100532.63
2018-12-18T14:57:01.373Z,100531.31
2018-12-18T14:59:30.942Z,100529.94
2018-12-18T15:02:00.530Z,100524.36
2018-12-18T15:04:30.079Z,100525.63
2018-12-18T15:07:02.841Z,100530.81
2018-12-18T15:09:31.330Z,100524.36
2018-12-18T15:12:00.907Z,100525.31
2018-12-18T15:14:30.545Z,100520.68
2018-12-18T15:17:00.121Z,100519.46
2018-12-18T15:19:29.755Z,100516.83
2018-12-18T15:21:59.327Z,100520.88
2018-12-18T15:24:28.969Z,100523.77
2018-12-18T15:26:58.568Z,100523.73
2018-12-18T15:29:28.173Z,100520.68
2018-12-18T15:31:57.708Z,100521.45
2018-12-18T15:34:27.240Z,100518.83
2018-12-18T15:36:56.889Z,100521.09
2018-12-18T15:39:26.393Z,100527.81
2018-12-18T15:41:55.901Z,100526.04
2018-12-18T15:44:25.564Z,100526.86
2018-12-18T15:46:54.978Z,100525.86
2018-12-18T15:49:24.605Z,100532.13
2018-12-18T15:51:54.149Z,100531.21
2018-12-18T15:54:23.709Z,100529.45
2018-12-18T15:56:53.325Z,100528.45
2018-12-18T15:59:23.041Z,100536.94
2018-12-18T16:01:52.638Z,100533.40
2018-12-18T16:04:22.179Z,100536.89
2018-12-18T16:06:51.799Z,100532.80
2018-12-18T16:09:21.351Z,100531.08
2018-12-18T16:11:50.961Z,100534.57
2018-12-18T16:14:20.999Z,100538.25
2018-12-18T16:16:50.577Z,100531.13
2018-12-18T16:19:20.392Z,100537.66
2018-12-18T16:21:50.162Z,100535.03
2018-12-18T16:24:20.756Z,100535.89
2018-12-18T16:26:50.439Z,100523.62
2018-12-18T16:29:20.011Z,100524.50
2018-12-18T16:31:49.646Z,100521.87
2018-12-18T16:34:19.257Z,100518.87
2018-12-18T16:36:48.819Z,100518.31
2018-12-18T16:39:18.486Z,100520.09
2018-12-18T16:41:49.187Z,100511.73
2018-12-18T16:44:18.802Z,100519.47
2018-12-18T16:46:48.384Z,100526.05
2018-12-18T16:49:18.190Z,100525.00
2018-12-18T16:51:47.829Z,100522.59
2018-12-18T16:54:17.519Z,100533.07
2018-12-18T16:56:47.269Z,100540.42
2018-12-18T16:59:16.857Z,100537.84
2018-12-18T17:01:46.447Z,100552.32
2018-12-18T17:04:16.074Z,100555.36
2018-12-18T17:06:45.667Z,100555.95
2018-12-18T17:09:15.271Z,100548.78
2018-12-18T17:11:44.876Z,100552.81
2018-12-18T17:14:14.481Z,100553.13
2018-12-18T17:16:44.190Z,100542.06
2018-12-18T17:19:18.839Z,100528.27
2018-12-18T17:21:48.581Z,100520.63
2018-12-18T17:24:18.139Z,100514.10
2018-12-18T17:26:47.744Z,100517.20
2018-12-18T17:29:17.439Z,100526.49
2018-12-18T17:31:47.058Z,100528.44
2018-12-18T17:34:16.718Z,100536.74
2018-12-18T17:36:47.260Z,100542.91
2018-12-18T17:39:16.871Z,100534.26
2018-12-18T17:41:46.435Z,100548.64
2018-12-18T17:44:15.984Z,100546.36
2018-12-18T17:46:45.631Z,100544.23
2018-12-18T17:49:15.291Z,100540.28
2018-12-18T17:51:45.030Z,100541.15
2018-12-18T17:54:14.652Z,100535.79
2018-12-18T17:56:44.323Z,100540.36
2018-12-18T17:59:13.911Z,100547.73
2018-12-18T18:01:43.544Z,100549.95
2018-12-18T18:04:13.114Z,100533.61
2018-12-18T18:06:42.756Z,100532.30
2018-12-18T18:09:12.805Z,100525.80
2018-12-18T18:11:42.577Z,100534.83
2018-12-18T18:14:12.176Z,100530.09
2018-12-18T18:16:41.737Z,100522.58
2018-12-18T18:19:12.035Z,100526.61
2018-12-18T18:21:42.822Z,100528.47
2018-12-18T18:24:12.945Z,100521.48
2018-12-18T18:26:42.611Z,100519.77
2018-12-18T18:29:18.761Z,100518.94
2018-12-18T18:31:48.279Z,100515.26
2018-12-18T18:34:18.107Z,100517.48
2018-12-18T18:36:47.760Z,100527.77
2018-12-18T18:39:19.070Z,100518.34
2018-12-18T18:41:49.319Z,100522.79
2018-12-18T18:44:20.051Z,100522.74
2018-12-18T18:46:50.981Z,100527.92
2018-12-18T18:49:20.696Z,100530.42
2018-12-18T18:51:51.424Z,100530.35
2018-12-18T18:54:21.240Z,100515.98
2018-12-18T18:56:51.248Z,100512.53
2018-12-18T18:59:21.800Z,100518.16
2018-12-18T19:01:54.770Z,100513.03
2018-12-18T19:04:24.587Z,100506.41
2018-12-18T19:06:54.202Z,100504.50
2018-12-18T19:09:23.890Z,100498.05
2018-12-18T19:11:54.006Z,100498.41
2018-12-18T19:14:23.573Z,100507.08
2018-12-18T19:16:55.335Z,100506.77
2018-12-18T19:19:24.986Z,100511.05
2018-12-18T19:21:57.669Z,100508.19
2018-12-18T19:24:27.935Z,100514.33
2018-12-18T19:27:00.817Z,100515.70
2018-12-18T19:29:30.869Z,100515.23
2018-12-18T19:32:00.516Z,100513.45
2018-12-18T19:34:30.185Z,100517.32
2018-12-18T19:37:00.671Z,100509.42
2018-12-18T19:39:35.312Z,100516.95
2018-12-18T19:42:05.576Z,100520.80
2018-12-18T19:44:36.619Z,100522.58
2018-12-18T19:47:06.530Z,100525.99
2018-12-18T19:49:36.506Z,100517.77
2018-12-18T19:52:10.229Z,100529.11
2018-12-18T19:54:43.071Z,100524.23
2018-12-18T19:57:16.807Z,100520.03
2018-12-18T19:59:46.382Z,100516.34
2018-12-18T20:02:20.196Z,100505.72
2018-12-18T20:04:49.760Z,100512.91
2018-12-18T20:07:19.349Z,100511.39
2018-12-18T20:09:49.041Z,100504.03
2018-12-18T20:12:19.378Z,100504.50
2018-12-18T20:14:53.060Z,100509.56
2018-12-18T20:17:23.411Z,100508.97
2018-12-18T20:19:54.241Z,100518.98
2018-12-18T20:22:25.610Z,100514.69
2018-12-18T20:24:58.959Z,100517.32
2018-12-18T20:27:31.571Z,100522.58
2018-12-18T20:30:03.601Z,100522.38
2018-12-18T20:32:33.205Z,100521.16
2018-12-18T20:35:02.838Z,100519.59
2018-12-18T20:37:33.444Z,100521.40
2018-12-18T20:40:06.165Z,100519.48
2018-12-18T20:42:39.104Z,100520.45
2018-12-18T20:45:10.858Z,100513.42
2018-12-18T20:47:42.039Z,100511.95
2018-12-18T20:50:16.233Z,100520.34
2018-12-18T20:52:45.920Z,100516.66
2018-12-18T20:55:15.728Z,100515.26
2018-12-18T20:57:46.467Z,100515.03
2018-12-18T21:00:16.124Z,100514.39
2018-12-18T21:02:47.017Z,100510.12
2018-12-18T21:05:20.609Z,100514.53
2018-12-18T21:07:52.061Z,100507.91
2018-12-18T21:10:21.878Z,100503.01
2018-12-18T21:12:53.400Z,100499.17
2018-12-18T21:15:23.206Z,100495.11
2018-12-18T21:17:53.021Z,100499.70
2018-12-18T21:20:24.527Z,100496.17
2018-12-18T21:22:54.190Z,100491.41
2018-12-18T21:25:24.054Z,100496.61
2018-12-18T21:27:53.711Z,100487.81
2018-12-18T21:30:23.437Z,100490.55
2018-12-18T21:32:53.197Z,100491.27
2018-12-18T21:35:23.049Z,100495.35
2018-12-18T21:37:52.812Z,100504.56
2018-12-18T21:40:22.407Z,100498.36
2018-12-18T21:42:52.161Z,100497.64
2018-12-18T21:45:21.761Z,100493.28
2018-12-18T21:47:51.720Z,100490.29
2018-12-18T21:50:21.498Z,100489.66
2018-12-18T21:52:51.207Z,100480.05
2018-12-18T21:55:20.750Z,100481.05
2018-12-18T21:57:50.514Z,100472.34
2018-12-18T22:00:20.225Z,100465.95
2018-12-18T22:02:51.459Z,100463.91
2018-12-18T22:05:21.310Z,100456.58
2018-12-18T22:07:50.926Z,100462.56
2018-12-18T22:10:20.609Z,100461.05
2018-12-18T22:12:50.407Z,100458.31
2018-12-18T22:15:19.980Z,100454.55
2018-12-18T22:17:49.656Z,100460.26
2018-12-18T22:20:27.905Z,100461.30
2018-12-18T22:23:31.994Z,100460.20
2018-12-18T22:26:01.878Z,100450.92
2018-12-18T22:28:31.564Z,100441.42
2018-12-18T22:31:01.222Z,100438.39
2018-12-18T22:33:30.932Z,100440.20
2018-12-18T22:36:00.643Z,100437.41
2018-12-18T22:38:30.291Z,100434.77
2018-12-18T22:41:00.062Z,100434.31
2018-12-18T22:43:29.762Z,100433.95
2018-12-18T22:45:59.394Z,100430.63
2018-12-18T22:48:29.000Z,100420.11
2018-12-18T22:50:58.682Z,100429.95
2018-12-18T22:53:28.390Z,100424.56
2018-12-18T22:55:58.034Z,100422.74
2018-12-18T22:58:28.364Z,100423.97
2018-12-18T23:01:02.778Z,100425.88
2018-12-18T23:03:33.241Z,100420.47
2018-12-18T23:06:03.499Z,100424.20
2018-12-18T23:08:33.186Z,100421.75
2018-12-18T23:11:03.010Z,100425.15
2018-12-18T23:13:32.808Z,100416.11
2018-12-18T23:16:02.409Z,100421.42
2018-12-18T23:18:32.130Z,100415.71
2018-12-18T23:21:01.829Z,100416.57
2018-12-18T23:23:31.428Z,100413.45
2018-12-18T23:26:01.036Z,100414.48
2018-12-18T23:28:30.750Z,100412.36
2018-12-18T23:31:00.367Z,100413.04
2018-12-18T23:33:30.270Z,100406.83
2018-12-18T23:36:00.022Z,100400.78
2018-12-18T23:38:30.430Z,100402.69
2018-12-18T23:41:00.001Z,100395.25
2018-12-18T23:43:29.656Z,100394.39
2018-12-18T23:45:59.363Z,100394.06
2018-12-18T23:48:28.971Z,100393.03
2018-12-18T23:50:58.639Z,100389.17
2018-12-18T23:53:28.241Z,100382.95
2018-12-18T23:55:57.899Z,100386.95
2018-12-18T23:58:27.481Z,100379.05
